Metar GG30 METAR message from awiacja.imgw.pl Metar G30 EPRZ METAR EPRZ 201530Z 29004KT 9999 FEW020CB BKN036 03/01 Q1022 =